sensor_id;sensor_type;location;lat;lon;timestamp;P1;P2;P0
42410;PMS5003;28056;51.112;0.984;2022-09-28T00:00:36;7;6;
42410;PMS5003;28056;51.112;0.984;2022-09-28T00:04:52;6;6;
42410;PMS5003;28056;51.112;0.984;2022-09-28T00:07:20;6;3;
42410;PMS5003;28056;51.112;0.984;2022-09-28T00:09:47;7;5;
42410;PMS5003;28056;51.112;0.984;2022-09-28T00:12:14;5;5;
42410;PMS5003;28056;51.112;0.984;2022-09-28T00:14:41;3;3;
42410;PMS5003;28056;51.112;0.984;2022-09-28T00:17:08;7;6;
42410;PMS5003;28056;51.112;0.984;2022-09-28T00:19:35;9;6;
42410;PMS5003;28056;51.112;0.984;2022-09-28T00:22:02;6;5;
42410;PMS5003;28056;51.112;0.984;2022-09-28T00:24:29;9;7;
42410;PMS5003;28056;51.112;0.984;2022-09-28T00:26:57;6;5;
42410;PMS5003;28056;51.112;0.984;2022-09-28T00:29:26;5;5;
42410;PMS5003;28056;51.112;0.984;2022-09-28T00:31:54;6;6;
42410;PMS5003;28056;51.112;0.984;2022-09-28T00:34:24;9;7;
42410;PMS5003;28056;51.112;0.984;2022-09-28T00:36:51;5;5;
42410;PMS5003;28056;51.112;0.984;2022-09-28T00:39:18;5;5;
42410;PMS5003;28056;51.112;0.984;2022-09-28T00:41:46;7;5;
42410;PMS5003;28056;51.112;0.984;2022-09-28T00:44:21;5;5;
42410;PMS5003;28056;51.112;0.984;2022-09-28T00:47:07;7;7;
42410;PMS5003;28056;51.112;0.984;2022-09-28T00:49:42;7;6;
42410;PMS5003;28056;51.112;0.984;2022-09-28T00:52:13;6;5;
42410;PMS5003;28056;51.112;0.984;2022-09-28T00:54:45;7;6;
42410;PMS5003;28056;51.112;0.984;2022-09-28T00:57:14;7;5;
42410;PMS5003;28056;51.112;0.984;2022-09-28T00:59:42;7;7;
42410;PMS5003;28056;51.112;0.984;2022-09-28T01:02:10;6;6;
42410;PMS5003;28056;51.112;0.984;2022-09-28T01:04:37;11;6;
42410;PMS5003;28056;51.112;0.984;2022-09-28T01:07:05;5;5;
42410;PMS5003;28056;51.112;0.984;2022-09-28T01:09:35;9;6;
42410;PMS5003;28056;51.112;0.984;2022-09-28T01:12:04;7;5;
42410;PMS5003;28056;51.112;0.984;2022-09-28T01:14:32;5;5;
42410;PMS5003;28056;51.112;0.984;2022-09-28T01:17:02;9;6;
42410;PMS5003;28056;51.112;0.984;2022-09-28T01:19:39;9;5;
42410;PMS5003;28056;51.112;0.984;2022-09-28T01:22:29;6;6;
42410;PMS5003;28056;51.112;0.984;2022-09-28T01:25:12;6;6;
42410;PMS5003;28056;51.112;0.984;2022-09-28T01:27:50;5;3;
42410;PMS5003;28056;51.112;0.984;2022-09-28T01:30:20;7;5;
42410;PMS5003;28056;51.112;0.984;2022-09-28T01:32:48;11;5;
42410;PMS5003;28056;51.112;0.984;2022-09-28T01:35:22;6;3;
42410;PMS5003;28056;51.112;0.984;2022-09-28T01:37:55;6;6;
42410;PMS5003;28056;51.112;0.984;2022-09-28T01:40:28;7;5;
42410;PMS5003;28056;51.112;0.984;2022-09-28T01:43:01;5;5;
42410;PMS5003;28056;51.112;0.984;2022-09-28T01:45:32;5;5;
42410;PMS5003;28056;51.112;0.984;2022-09-28T01:48:07;9;6;
42410;PMS5003;28056;51.112;0.984;2022-09-28T01:50:38;6;5;
42410;PMS5003;28056;51.112;0.984;2022-09-28T01:53:10;5;5;
42410;PMS5003;28056;51.112;0.984;2022-09-28T01:55:43;7;5;
42410;PMS5003;28056;51.112;0.984;2022-09-28T01:58:14;9;7;
42410;PMS5003;28056;51.112;0.984;2022-09-28T02:00:51;3;3;
42410;PMS5003;28056;51.112;0.984;2022-09-28T02:03:22;7;6;
42410;PMS5003;28056;51.112;0.984;2022-09-28T02:05:55;7;5;
42410;PMS5003;28056;51.112;0.984;2022-09-28T02:08:25;11;7;
42410;PMS5003;28056;51.112;0.984;2022-09-28T02:10:59;3;3;
42410;PMS5003;28056;51.112;0.984;2022-09-28T02:13:32;5;3;
42410;PMS5003;28056;51.112;0.984;2022-09-28T02:16:03;5;3;
42410;PMS5003;28056;51.112;0.984;2022-09-28T02:18:41;5;5;
42410;PMS5003;28056;51.112;0.984;2022-09-28T02:21:12;6;6;
42410;PMS5003;28056;51.112;0.984;2022-09-28T02:23:45;6;5;
42410;PMS5003;28056;51.112;0.984;2022-09-28T02:26:19;3;3;
42410;PMS5003;28056;51.112;0.984;2022-09-28T02:28:50;5;3;
42410;PMS5003;28056;51.112;0.984;2022-09-28T02:31:17;7;5;
42410;PMS5003;28056;51.112;0.984;2022-09-28T02:33:44;5;5;
42410;PMS5003;28056;51.112;0.984;2022-09-28T02:36:14;10;10;
42410;PMS5003;28056;51.112;0.984;2022-09-28T02:38:42;5;3;
42410;PMS5003;28056;51.112;0.984;2022-09-28T02:41:12;7;7;
42410;PMS5003;28056;51.112;0.984;2022-09-28T02:43:54;7;6;
42410;PMS5003;28056;51.112;0.984;2022-09-28T02:46:31;9;7;
42410;PMS5003;28056;51.112;0.984;2022-09-28T02:49:10;9;6;
42410;PMS5003;28056;51.112;0.984;2022-09-28T02:51:46;13;10;
42410;PMS5003;28056;51.112;0.984;2022-09-28T02:54:30;6;6;
42410;PMS5003;28056;51.112;0.984;2022-09-28T02:57:11;10;6;
42410;PMS5003;28056;51.112;0.984;2022-09-28T02:59:48;3;3;
42410;PMS5003;28056;51.112;0.984;2022-09-28T03:02:25;7;5;
42410;PMS5003;28056;51.112;0.984;2022-09-28T03:05:01;11;7;
42410;PMS5003;28056;51.112;0.984;2022-09-28T03:07:36;5;5;
42410;PMS5003;28056;51.112;0.984;2022-09-28T03:10:08;7;6;
42410;PMS5003;28056;51.112;0.984;2022-09-28T03:12:42;6;6;
42410;PMS5003;28056;51.112;0.984;2022-09-28T03:15:13;7;5;
42410;PMS5003;28056;51.112;0.984;2022-09-28T03:17:46;5;5;
42410;PMS5003;28056;51.112;0.984;2022-09-28T03:20:14;8;6;
42410;PMS5003;28056;51.112;0.984;2022-09-28T03:22:42;5;4;
42410;PMS5003;28056;51.112;0.984;2022-09-28T03:25:09;8;5;
42410;PMS5003;28056;51.112;0.984;2022-09-28T03:27:37;6;5;
42410;PMS5003;28056;51.112;0.984;2022-09-28T03:30:04;6;5;
42410;PMS5003;28056;51.112;0.984;2022-09-28T03:32:33;5;5;
42410;PMS5003;28056;51.112;0.984;2022-09-28T03:35:01;6;5;
42410;PMS5003;28056;51.112;0.984;2022-09-28T03:37:29;6;6;
42410;PMS5003;28056;51.112;0.984;2022-09-28T03:39:57;6;6;
42410;PMS5003;28056;51.112;0.984;2022-09-28T03:42:24;6;6;
42410;PMS5003;28056;51.112;0.984;2022-09-28T03:44:51;8;8;
42410;PMS5003;28056;51.112;0.984;2022-09-28T03:47:18;8;6;
42410;PMS5003;28056;51.112;0.984;2022-09-28T03:49:45;5;5;
42410;PMS5003;28056;51.112;0.984;2022-09-28T03:52:13;6;6;
42410;PMS5003;28056;51.112;0.984;2022-09-28T03:54:40;4;4;
42410;PMS5003;28056;51.112;0.984;2022-09-28T03:57:07;8;5;
42410;PMS5003;28056;51.112;0.984;2022-09-28T03:59:34;6;5;
42410;PMS5003;28056;51.112;0.984;2022-09-28T04:02:02;5;5;
42410;PMS5003;28056;51.112;0.984;2022-09-28T04:04:30;12;6;
42410;PMS5003;28056;51.112;0.984;2022-09-28T04:06:57;10;4;
42410;PMS5003;28056;51.112;0.984;2022-09-28T04:09:25;8;4;
42410;PMS5003;28056;51.112;0.984;2022-09-28T04:11:52;14;9;
42410;PMS5003;28056;51.112;0.984;2022-09-28T04:14:19;5;4;
42410;PMS5003;28056;51.112;0.984;2022-09-28T04:16:47;5;5;
42410;PMS5003;28056;51.112;0.984;2022-09-28T04:19:15;10;6;
42410;PMS5003;28056;51.112;0.984;2022-09-28T04:21:42;9;5;
42410;PMS5003;28056;51.112;0.984;2022-09-28T04:24:09;5;5;
42410;PMS5003;28056;51.112;0.984;2022-09-28T04:26:36;4;4;
42410;PMS5003;28056;51.112;0.984;2022-09-28T04:29:03;10;9;
42410;PMS5003;28056;51.112;0.984;2022-09-28T04:31:35;9;6;
42410;PMS5003;28056;51.112;0.984;2022-09-28T04:34:04;4;4;
42410;PMS5003;28056;51.112;0.984;2022-09-28T04:36:31;6;6;
42410;PMS5003;28056;51.112;0.984;2022-09-28T04:38:59;9;4;
42410;PMS5003;28056;51.112;0.984;2022-09-28T04:41:26;6;6;
42410;PMS5003;28056;51.112;0.984;2022-09-28T04:43:53;9;9;
42410;PMS5003;28056;51.112;0.984;2022-09-28T04:46:20;4;4;
42410;PMS5003;28056;51.112;0.984;2022-09-28T04:48:47;5;5;
42410;PMS5003;28056;51.112;0.984;2022-09-28T04:51:14;4;4;
42410;PMS5003;28056;51.112;0.984;2022-09-28T04:53:41;5;5;
42410;PMS5003;28056;51.112;0.984;2022-09-28T04:56:09;8;8;
42410;PMS5003;28056;51.112;0.984;2022-09-28T04:58:38;9;5;
42410;PMS5003;28056;51.112;0.984;2022-09-28T05:01:06;5;5;
42410;PMS5003;28056;51.112;0.984;2022-09-28T05:03:37;10;6;
42410;PMS5003;28056;51.112;0.984;2022-09-28T05:06:05;10;9;
42410;PMS5003;28056;51.112;0.984;2022-09-28T05:08:33;4;4;
42410;PMS5003;28056;51.112;0.984;2022-09-28T05:11:01;9;9;
42410;PMS5003;28056;51.112;0.984;2022-09-28T05:13:31;6;5;
42410;PMS5003;28056;51.112;0.984;2022-09-28T05:15:59;6;6;
42410;PMS5003;28056;51.112;0.984;2022-09-28T05:18:27;8;8;
42410;PMS5003;28056;51.112;0.984;2022-09-28T05:20:54;6;5;
42410;PMS5003;28056;51.112;0.984;2022-09-28T05:23:21;5;5;
42410;PMS5003;28056;51.112;0.984;2022-09-28T05:25:49;9;8;
42410;PMS5003;28056;51.112;0.984;2022-09-28T05:28:19;5;5;
42410;PMS5003;28056;51.112;0.984;2022-09-28T05:30:51;5;5;
42410;PMS5003;28056;51.112;0.984;2022-09-28T05:33:18;9;6;
42410;PMS5003;28056;51.112;0.984;2022-09-28T05:35:46;12;12;
42410;PMS5003;28056;51.112;0.984;2022-09-28T05:38:13;5;5;
42410;PMS5003;28056;51.112;0.984;2022-09-28T05:40:40;8;8;
42410;PMS5003;28056;51.112;0.984;2022-09-28T05:43:07;6;5;
42410;PMS5003;28056;51.112;0.984;2022-09-28T05:45:35;6;6;
42410;PMS5003;28056;51.112;0.984;2022-09-28T05:48:02;14;9;
42410;PMS5003;28056;51.112;0.984;2022-09-28T05:50:29;6;5;
42410;PMS5003;28056;51.112;0.984;2022-09-28T05:52:58;8;5;
42410;PMS5003;28056;51.112;0.984;2022-09-28T05:55:26;8;8;
42410;PMS5003;28056;51.112;0.984;2022-09-28T05:57:56;10;8;
42410;PMS5003;28056;51.112;0.984;2022-09-28T06:00:24;9;8;
42410;PMS5003;28056;51.112;0.984;2022-09-28T06:02:56;9;9;
42410;PMS5003;28056;51.112;0.984;2022-09-28T06:05:24;8;6;
42410;PMS5003;28056;51.112;0.984;2022-09-28T06:07:54;5;5;
42410;PMS5003;28056;51.112;0.984;2022-09-28T06:10:22;13;5;
42410;PMS5003;28056;51.112;0.984;2022-09-28T06:12:51;6;5;
42410;PMS5003;28056;51.112;0.984;2022-09-28T06:15:19;6;6;
42410;PMS5003;28056;51.112;0.984;2022-09-28T06:17:53;6;5;
42410;PMS5003;28056;51.112;0.984;2022-09-28T06:20:21;12;5;
42410;PMS5003;28056;51.112;0.984;2022-09-28T06:22:50;8;5;
42410;PMS5003;28056;51.112;0.984;2022-09-28T06:25:18;10;9;
42410;PMS5003;28056;51.112;0.984;2022-09-28T06:27:52;6;5;
42410;PMS5003;28056;51.112;0.984;2022-09-28T06:30:20;8;6;
42410;PMS5003;28056;51.112;0.984;2022-09-28T06:32:48;8;5;
42410;PMS5003;28056;51.112;0.984;2022-09-28T06:35:18;8;8;
42410;PMS5003;28056;51.112;0.984;2022-09-28T06:37:46;6;6;
42410;PMS5003;28056;51.112;0.984;2022-09-28T06:40:14;9;8;
42410;PMS5003;28056;51.112;0.984;2022-09-28T06:42:42;8;5;
42410;PMS5003;28056;51.112;0.984;2022-09-28T06:45:10;9;6;
42410;PMS5003;28056;51.112;0.984;2022-09-28T06:47:37;6;5;
42410;PMS5003;28056;51.112;0.984;2022-09-28T06:50:04;5;5;
42410;PMS5003;28056;51.112;0.984;2022-09-28T06:52:32;4;4;
42410;PMS5003;28056;51.112;0.984;2022-09-28T06:55:00;6;6;
42410;PMS5003;28056;51.112;0.984;2022-09-28T06:57:27;6;6;
42410;PMS5003;28056;51.112;0.984;2022-09-28T06:59:54;9;5;
42410;PMS5003;28056;51.112;0.984;2022-09-28T07:02:21;8;5;
42410;PMS5003;28056;51.112;0.984;2022-09-28T07:04:48;6;5;
42410;PMS5003;28056;51.112;0.984;2022-09-28T07:07:15;8;6;
42410;PMS5003;28056;51.112;0.984;2022-09-28T07:09:42;4;4;
42410;PMS5003;28056;51.112;0.984;2022-09-28T07:12:10;5;5;
42410;PMS5003;28056;51.112;0.984;2022-09-28T07:14:38;5;4;
42410;PMS5003;28056;51.112;0.984;2022-09-28T07:17:05;8;5;
42410;PMS5003;28056;51.112;0.984;2022-09-28T07:19:32;10;6;
42410;PMS5003;28056;51.112;0.984;2022-09-28T07:21:59;7;5;
42410;PMS5003;28056;51.112;0.984;2022-09-28T07:24:26;5;4;
42410;PMS5003;28056;51.112;0.984;2022-09-28T07:26:53;10;6;
42410;PMS5003;28056;51.112;0.984;2022-09-28T07:29:20;14;9;
42410;PMS5003;28056;51.112;0.984;2022-09-28T07:31:47;9;7;
42410;PMS5003;28056;51.112;0.984;2022-09-28T07:34:15;5;5;
42410;PMS5003;28056;51.112;0.984;2022-09-28T07:36:43;6;6;
42410;PMS5003;28056;51.112;0.984;2022-09-28T07:39:11;6;6;
42410;PMS5003;28056;51.112;0.984;2022-09-28T07:41:38;6;6;
42410;PMS5003;28056;51.112;0.984;2022-09-28T07:44:05;7;7;
42410;PMS5003;28056;51.112;0.984;2022-09-28T07:46:33;13;9;
42410;PMS5003;28056;51.112;0.984;2022-09-28T07:49:01;9;5;
42410;PMS5003;28056;51.112;0.984;2022-09-28T07:51:28;9;6;
42410;PMS5003;28056;51.112;0.984;2022-09-28T07:53:56;10;6;
42410;PMS5003;28056;51.112;0.984;2022-09-28T07:56:25;7;6;
42410;PMS5003;28056;51.112;0.984;2022-09-28T07:58:52;7;7;
42410;PMS5003;28056;51.112;0.984;2022-09-28T08:01:19;9;6;
42410;PMS5003;28056;51.112;0.984;2022-09-28T08:03:46;7;5;
42410;PMS5003;28056;51.112;0.984;2022-09-28T08:06:14;6;6;
42410;PMS5003;28056;51.112;0.984;2022-09-28T08:08:42;7;6;
42410;PMS5003;28056;51.112;0.984;2022-09-28T08:11:11;10;7;
42410;PMS5003;28056;51.112;0.984;2022-09-28T08:13:39;5;5;
42410;PMS5003;28056;51.112;0.984;2022-09-28T08:16:06;7;7;
42410;PMS5003;28056;51.112;0.984;2022-09-28T08:18:34;6;6;
42410;PMS5003;28056;51.112;0.984;2022-09-28T08:21:02;6;6;
42410;PMS5003;28056;51.112;0.984;2022-09-28T08:23:31;8;6;
42410;PMS5003;28056;51.112;0.984;2022-09-28T08:25:58;6;6;
42410;PMS5003;28056;51.112;0.984;2022-09-28T08:28:25;8;8;
42410;PMS5003;28056;51.112;0.984;2022-09-28T08:30:52;7;6;
42410;PMS5003;28056;51.112;0.984;2022-09-28T08:33:21;7;5;
42410;PMS5003;28056;51.112;0.984;2022-09-28T08:35:53;6;6;
42410;PMS5003;28056;51.112;0.984;2022-09-28T08:38:22;7;7;
42410;PMS5003;28056;51.112;0.984;2022-09-28T08:40:53;8;7;
42410;PMS5003;28056;51.112;0.984;2022-09-28T08:43:40;6;6;
42410;PMS5003;28056;51.112;0.984;2022-09-28T08:46:18;8;6;
42410;PMS5003;28056;51.112;0.984;2022-09-28T08:48:51;9;8;
42410;PMS5003;28056;51.112;0.984;2022-09-28T08:51:24;10;7;
42410;PMS5003;28056;51.112;0.984;2022-09-28T08:53:56;8;7;
42410;PMS5003;28056;51.112;0.984;2022-09-28T08:56:30;11;9;
42410;PMS5003;28056;51.112;0.984;2022-09-28T08:59:15;6;4;
42410;PMS5003;28056;51.112;0.984;2022-09-28T09:01:46;8;6;
42410;PMS5003;28056;51.112;0.984;2022-09-28T09:04:17;7;7;
42410;PMS5003;28056;51.112;0.984;2022-09-28T09:06:50;8;4;
42410;PMS5003;28056;51.112;0.984;2022-09-28T09:09:30;3;3;
42410;PMS5003;28056;51.112;0.984;2022-09-28T09:12:06;7;6;
42410;PMS5003;28056;51.112;0.984;2022-09-28T09:14:43;3;3;
42410;PMS5003;28056;51.112;0.984;2022-09-28T09:17:30;7;4;
42410;PMS5003;28056;51.112;0.984;2022-09-28T09:20:12;3;3;
42410;PMS5003;28056;51.112;0.984;2022-09-28T09:22:46;3;3;
42410;PMS5003;28056;51.112;0.984;2022-09-28T09:25:24;4;4;
42410;PMS5003;28056;51.112;0.984;2022-09-28T09:27:57;4;4;
42410;PMS5003;28056;51.112;0.984;2022-09-28T09:30:45;8;7;
42410;PMS5003;28056;51.112;0.984;2022-09-28T09:33:35;3;3;
42410;PMS5003;28056;51.112;0.984;2022-09-28T09:36:23;4;4;
42410;PMS5003;28056;51.112;0.984;2022-09-28T09:39:04;3;3;
42410;PMS5003;28056;51.112;0.984;2022-09-28T09:41:48;4;2;
42410;PMS5003;28056;51.112;0.984;2022-09-28T09:44:30;6;6;
42410;PMS5003;28056;51.112;0.984;2022-09-28T09:47:13;7;4;
42410;PMS5003;28056;51.112;0.984;2022-09-28T09:49:45;6;3;
42410;PMS5003;28056;51.112;0.984;2022-09-28T09:52:19;4;3;
42410;PMS5003;28056;51.112;0.984;2022-09-28T09:54:53;3;3;
42410;PMS5003;28056;51.112;0.984;2022-09-28T09:57:25;6;6;
42410;PMS5003;28056;51.112;0.984;2022-09-28T09:59:57;3;3;
42410;PMS5003;28056;51.112;0.984;2022-09-28T10:02:28;3;3;
42410;PMS5003;28056;51.112;0.984;2022-09-28T10:04:59;4;4;
42410;PMS5003;28056;51.112;0.984;2022-09-28T10:07:32;4;2;
42410;PMS5003;28056;51.112;0.984;2022-09-28T10:10:09;8;4;
42410;PMS5003;28056;51.112;0.984;2022-09-28T10:12:39;3;3;
42410;PMS5003;28056;51.112;0.984;2022-09-28T10:15:14;4;2;
42410;PMS5003;28056;51.112;0.984;2022-09-28T10:17:44;3;3;
42410;PMS5003;28056;51.112;0.984;2022-09-28T10:20:12;3;3;
42410;PMS5003;28056;51.112;0.984;2022-09-28T10:22:41;7;7;
42410;PMS5003;28056;51.112;0.984;2022-09-28T10:25:09;4;2;
42410;PMS5003;28056;51.112;0.984;2022-09-28T10:27:41;4;2;
42410;PMS5003;28056;51.112;0.984;2022-09-28T10:30:14;1;1;
42410;PMS5003;28056;51.112;0.984;2022-09-28T10:32:44;5;4;
42410;PMS5003;28056;51.112;0.984;2022-09-28T10:35:20;2;2;
42410;PMS5003;28056;51.112;0.984;2022-09-28T10:37:50;2;2;
42410;PMS5003;28056;51.112;0.984;2022-09-28T10:40:26;3;3;
42410;PMS5003;28056;51.112;0.984;2022-09-28T10:43:01;2;2;
42410;PMS5003;28056;51.112;0.984;2022-09-28T10:45:32;2;2;
42410;PMS5003;28056;51.112;0.984;2022-09-28T10:48:03;4;3;
42410;PMS5003;28056;51.112;0.984;2022-09-28T10:50:39;3;2;
42410;PMS5003;28056;51.112;0.984;2022-09-28T10:53:10;2;2;
42410;PMS5003;28056;51.112;0.984;2022-09-28T10:55:42;3;2;
42410;PMS5003;28056;51.112;0.984;2022-09-28T10:58:24;1;1;
42410;PMS5003;28056;51.112;0.984;2022-09-28T11:00:59;4;3;
42410;PMS5003;28056;51.112;0.984;2022-09-28T11:03:29;2;1;
42410;PMS5003;28056;51.112;0.984;2022-09-28T11:05:58;1;1;
42410;PMS5003;28056;51.112;0.984;2022-09-28T11:08:29;2;1;
42410;PMS5003;28056;51.112;0.984;2022-09-28T11:11:01;2;2;
42410;PMS5003;28056;51.112;0.984;2022-09-28T11:13:29;1;1;
42410;PMS5003;28056;51.112;0.984;2022-09-28T11:15:57;2;2;
42410;PMS5003;28056;51.112;0.984;2022-09-28T11:18:25;1;1;
42410;PMS5003;28056;51.112;0.984;2022-09-28T11:21:06;1;1;
42410;PMS5003;28056;51.112;0.984;2022-09-28T11:23:35;2;2;
42410;PMS5003;28056;51.112;0.984;2022-09-28T11:26:04;3;3;
42410;PMS5003;28056;51.112;0.984;2022-09-28T11:28:34;2;1;
42410;PMS5003;28056;51.112;0.984;2022-09-28T11:31:02;1;1;
42410;PMS5003;28056;51.112;0.984;2022-09-28T11:33:33;2;2;
42410;PMS5003;28056;51.112;0.984;2022-09-28T11:36:10;1;1;
42410;PMS5003;28056;51.112;0.984;2022-09-28T11:38:49;2;1;
42410;PMS5003;28056;51.112;0.984;2022-09-28T11:41:26;1;1;
42410;PMS5003;28056;51.112;0.984;2022-09-28T11:44:12;1;1;
42410;PMS5003;28056;51.112;0.984;2022-09-28T11:46:54;1;1;
42410;PMS5003;28056;51.112;0.984;2022-09-28T11:49:32;2;1;
42410;PMS5003;28056;51.112;0.984;2022-09-28T11:52:05;3;2;
42410;PMS5003;28056;51.112;0.984;2022-09-28T11:54:37;1;1;
42410;PMS5003;28056;51.112;0.984;2022-09-28T11:57:12;2;2;
42410;PMS5003;28056;51.112;0.984;2022-09-28T11:59:46;2;2;
42410;PMS5003;28056;51.112;0.984;2022-09-28T12:02:22;1;1;
42410;PMS5003;28056;51.112;0.984;2022-09-28T12:04:54;1;1;
42410;PMS5003;28056;51.112;0.984;2022-09-28T12:07:26;3;3;
42410;PMS5003;28056;51.112;0.984;2022-09-28T12:09:59;1;1;
42410;PMS5003;28056;51.112;0.984;2022-09-28T12:12:36;2;2;
42410;PMS5003;28056;51.112;0.984;2022-09-28T12:15:13;1;1;
42410;PMS5003;28056;51.112;0.984;2022-09-28T12:17:45;1;1;
42410;PMS5003;28056;51.112;0.984;2022-09-28T12:20:19;1;1;
42410;PMS5003;28056;51.112;0.984;2022-09-28T12:22:54;2;2;
42410;PMS5003;28056;51.112;0.984;2022-09-28T12:25:32;2;2;
42410;PMS5003;28056;51.112;0.984;2022-09-28T12:28:06;1;1;
42410;PMS5003;28056;51.112;0.984;2022-09-28T12:30:42;1;1;
42410;PMS5003;28056;51.112;0.984;2022-09-28T12:33:13;2;2;
42410;PMS5003;28056;51.112;0.984;2022-09-28T12:35:45;2;2;
42410;PMS5003;28056;51.112;0.984;2022-09-28T12:38:32;1;1;
42410;PMS5003;28056;51.112;0.984;2022-09-28T12:41:15;2;2;
42410;PMS5003;28056;51.112;0.984;2022-09-28T12:43:53;2;1;
42410;PMS5003;28056;51.112;0.984;2022-09-28T12:46:38;3;2;
42410;PMS5003;28056;51.112;0.984;2022-09-28T12:49:21;4;3;
42410;PMS5003;28056;51.112;0.984;2022-09-28T12:51:55;1;1;
42410;PMS5003;28056;51.112;0.984;2022-09-28T12:54:28;3;3;
42410;PMS5003;28056;51.112;0.984;2022-09-28T12:57:17;2;2;
42410;PMS5003;28056;51.112;0.984;2022-09-28T13:00:04;1;1;
42410;PMS5003;28056;51.112;0.984;2022-09-28T13:02:40;1;1;
42410;PMS5003;28056;51.112;0.984;2022-09-28T13:05:27;2;2;
42410;PMS5003;28056;51.112;0.984;2022-09-28T13:08:08;3;1;
42410;PMS5003;28056;51.112;0.984;2022-09-28T13:10:44;3;3;
42410;PMS5003;28056;51.112;0.984;2022-09-28T13:13:28;5;3;
42410;PMS5003;28056;51.112;0.984;2022-09-28T13:16:06;1;1;
42410;PMS5003;28056;51.112;0.984;2022-09-28T13:18:43;2;2;
42410;PMS5003;28056;51.112;0.984;2022-09-28T13:21:23;3;3;
42410;PMS5003;28056;51.112;0.984;2022-09-28T13:23:58;5;5;
42410;PMS5003;28056;51.112;0.984;2022-09-28T13:26:29;5;4;
42410;PMS5003;28056;51.112;0.984;2022-09-28T13:29:00;3;2;
42410;PMS5003;28056;51.112;0.984;2022-09-28T13:31:30;3;3;
42410;PMS5003;28056;51.112;0.984;2022-09-28T13:33:59;4;4;
42410;PMS5003;28056;51.112;0.984;2022-09-28T13:36:36;2;1;
42410;PMS5003;28056;51.112;0.984;2022-09-28T13:39:33;4;3;
42410;PMS5003;28056;51.112;0.984;2022-09-28T13:42:05;3;3;
42410;PMS5003;28056;51.112;0.984;2022-09-28T13:44:45;3;2;
42410;PMS5003;28056;51.112;0.984;2022-09-28T13:47:32;2;2;
42410;PMS5003;28056;51.112;0.984;2022-09-28T13:50:14;2;2;
42410;PMS5003;28056;51.112;0.984;2022-09-28T13:52:55;3;3;
42410;PMS5003;28056;51.112;0.984;2022-09-28T13:55:31;3;3;
42410;PMS5003;28056;51.112;0.984;2022-09-28T13:58:11;7;4;
42410;PMS5003;28056;51.112;0.984;2022-09-28T14:00:44;3;2;
42410;PMS5003;28056;51.112;0.984;2022-09-28T14:03:24;1;1;
42410;PMS5003;28056;51.112;0.984;2022-09-28T14:06:11;3;3;
42410;PMS5003;28056;51.112;0.984;2022-09-28T14:10:09;3;2;
42410;PMS5003;28056;51.112;0.984;2022-09-28T14:12:44;2;2;
42410;PMS5003;28056;51.112;0.984;2022-09-28T14:15:45;2;2;
42410;PMS5003;28056;51.112;0.984;2022-09-28T14:18:15;3;3;
42410;PMS5003;28056;51.112;0.984;2022-09-28T14:20:52;3;3;
42410;PMS5003;28056;51.112;0.984;2022-09-28T14:23:41;5;3;
42410;PMS5003;28056;51.112;0.984;2022-09-28T14:27:17;4;4;
42410;PMS5003;28056;51.112;0.984;2022-09-28T14:30:05;4;4;
42410;PMS5003;28056;51.112;0.984;2022-09-28T14:32:45;2;2;
42410;PMS5003;28056;51.112;0.984;2022-09-28T14:35:22;3;3;
42410;PMS5003;28056;51.112;0.984;2022-09-28T14:37:55;2;2;
42410;PMS5003;28056;51.112;0.984;2022-09-28T14:40:29;3;2;
42410;PMS5003;28056;51.112;0.984;2022-09-28T14:43:25;4;2;
42410;PMS5003;28056;51.112;0.984;2022-09-28T14:46:37;2;2;
42410;PMS5003;28056;51.112;0.984;2022-09-28T14:49:58;2;2;
42410;PMS5003;28056;51.112;0.984;2022-09-28T14:52:43;2;2;
42410;PMS5003;28056;51.112;0.984;2022-09-28T14:55:16;1;1;
42410;PMS5003;28056;51.112;0.984;2022-09-28T14:57:51;2;2;
42410;PMS5003;28056;51.112;0.984;2022-09-28T15:00:21;2;2;
42410;PMS5003;28056;51.112;0.984;2022-09-28T15:02:51;3;3;
42410;PMS5003;28056;51.112;0.984;2022-09-28T15:05:23;2;2;
42410;PMS5003;28056;51.112;0.984;2022-09-28T15:07:54;2;2;
42410;PMS5003;28056;51.112;0.984;2022-09-28T15:10:23;2;2;
42410;PMS5003;28056;51.112;0.984;2022-09-28T15:12:53;2;2;
42410;PMS5003;28056;51.112;0.984;2022-09-28T15:15:37;5;3;
42410;PMS5003;28056;51.112;0.984;2022-09-28T15:18:14;3;3;
42410;PMS5003;28056;51.112;0.984;2022-09-28T15:20:52;4;3;
42410;PMS5003;28056;51.112;0.984;2022-09-28T15:23:24;4;3;
42410;PMS5003;28056;51.112;0.984;2022-09-28T15:25:58;3;3;
42410;PMS5003;28056;51.112;0.984;2022-09-28T15:28:26;2;2;
42410;PMS5003;28056;51.112;0.984;2022-09-28T15:30:57;5;4;
42410;PMS5003;28056;51.112;0.984;2022-09-28T15:33:27;2;2;
42410;PMS5003;28056;51.112;0.984;2022-09-28T15:35:57;4;3;
42410;PMS5003;28056;51.112;0.984;2022-09-28T15:38:27;3;3;
42410;PMS5003;28056;51.112;0.984;2022-09-28T15:40:56;3;3;
42410;PMS5003;28056;51.112;0.984;2022-09-28T15:43:25;3;3;
42410;PMS5003;28056;51.112;0.984;2022-09-28T15:45:55;2;2;
42410;PMS5003;28056;51.112;0.984;2022-09-28T15:48:26;3;3;
42410;PMS5003;28056;51.112;0.984;2022-09-28T15:50:56;2;2;
42410;PMS5003;28056;51.112;0.984;2022-09-28T15:53:30;4;4;
42410;PMS5003;28056;51.112;0.984;2022-09-28T15:55:59;2;2;
42410;PMS5003;28056;51.112;0.984;2022-09-28T15:58:31;3;2;
42410;PMS5003;28056;51.112;0.984;2022-09-28T16:01:33;4;2;
42410;PMS5003;28056;51.112;0.984;2022-09-28T16:04:37;2;2;
42410;PMS5003;28056;51.112;0.984;2022-09-28T16:07:25;3;3;
42410;PMS5003;28056;51.112;0.984;2022-09-28T16:10:00;5;3;
42410;PMS5003;28056;51.112;0.984;2022-09-28T16:12:31;4;4;
42410;PMS5003;28056;51.112;0.984;2022-09-28T16:15:10;7;3;
42410;PMS5003;28056;51.112;0.984;2022-09-28T16:17:41;4;2;
42410;PMS5003;28056;51.112;0.984;2022-09-28T16:20:20;3;3;
42410;PMS5003;28056;51.112;0.984;2022-09-28T16:22:51;8;5;
42410;PMS5003;28056;51.112;0.984;2022-09-28T16:25:20;5;4;
42410;PMS5003;28056;51.112;0.984;2022-09-28T16:27:50;3;3;
42410;PMS5003;28056;51.112;0.984;2022-09-28T16:30:19;2;2;
42410;PMS5003;28056;51.112;0.984;2022-09-28T16:32:49;4;3;
42410;PMS5003;28056;51.112;0.984;2022-09-28T16:35:21;3;3;
42410;PMS5003;28056;51.112;0.984;2022-09-28T16:37:56;2;2;
42410;PMS5003;28056;51.112;0.984;2022-09-28T16:40:25;4;4;
42410;PMS5003;28056;51.112;0.984;2022-09-28T16:42:55;3;3;
42410;PMS5003;28056;51.112;0.984;2022-09-28T16:45:24;3;3;
42410;PMS5003;28056;51.112;0.984;2022-09-28T16:47:54;3;3;
42410;PMS5003;28056;51.112;0.984;2022-09-28T16:50:23;4;4;
42410;PMS5003;28056;51.112;0.984;2022-09-28T16:52:55;3;3;
42410;PMS5003;28056;51.112;0.984;2022-09-28T16:55:25;7;5;
42410;PMS5003;28056;51.112;0.984;2022-09-28T16:57:53;3;3;
42410;PMS5003;28056;51.112;0.984;2022-09-28T17:00:22;5;4;
42410;PMS5003;28056;51.112;0.984;2022-09-28T17:02:50;2;2;
42410;PMS5003;28056;51.112;0.984;2022-09-28T17:05:19;4;4;
42410;PMS5003;28056;51.112;0.984;2022-09-28T17:07:47;2;2;
42410;PMS5003;28056;51.112;0.984;2022-09-28T17:10:24;4;4;
42410;PMS5003;28056;51.112;0.984;2022-09-28T17:12:58;2;2;
42410;PMS5003;28056;51.112;0.984;2022-09-28T17:15:26;2;2;
42410;PMS5003;28056;51.112;0.984;2022-09-28T17:17:54;2;2;
42410;PMS5003;28056;51.112;0.984;2022-09-28T17:20:22;3;3;
42410;PMS5003;28056;51.112;0.984;2022-09-28T17:22:52;3;3;
42410;PMS5003;28056;51.112;0.984;2022-09-28T17:25:20;2;2;
42410;PMS5003;28056;51.112;0.984;2022-09-28T17:27:49;6;4;
42410;PMS5003;28056;51.112;0.984;2022-09-28T17:30:20;6;6;